Time;durP1;ratioP1;P1;durP2;ratioP2;P2;SDS_P1;SDS_P2;PMS_P1;PMS_P2;Temp;Humidity;BMP_temperature;BMP_pressure;BME280_temperature;BME280_humidity;BME280_pressure;Samples;Min_cycle;Max_cycle;Signal;HPM_P1;HPM_P2
2023/07/26 00:13:53;;;;;;;4.40;3.27;;;;;;;16.29;72.99;99049.84;31104989;28;97383;-65
2023/07/26 00:28:53;;;;;;;6.43;3.33;;;;;;;16.03;72.98;99051.16;31102350;28;97289;-65
2023/07/26 00:43:54;;;;;;;4.68;3.10;;;;;;;15.78;73.29;99064.78;31101705;28;97880;-65
2023/07/26 00:58:54;;;;;;;5.03;2.63;;;;;;;15.53;73.05;99069.31;31099842;28;97480;-66
2023/07/26 01:14:18;;;;;;;6.45;2.50;;;;;;;15.38;73.37;99059.00;31099046;28;97828;-67
2023/07/26 01:29:18;;;;;;;4.83;2.53;;;;;;;15.26;73.58;99060.81;31098618;28;96715;-65
2023/07/26 01:44:18;;;;;;;3.85;2.38;;;;;;;15.09;73.79;99083.97;31095813;28;96715;-65
2023/07/26 01:59:19;;;;;;;4.18;2.28;;;;;;;14.95;73.97;99086.00;31093669;28;112991;-65
2023/07/26 02:14:19;;;;;;;5.78;2.45;;;;;;;14.86;74.34;99085.50;31092027;28;97125;-65
2023/07/26 02:29:19;;;;;;;4.35;2.67;;;;;;;14.75;74.40;99107.69;31091453;28;108770;-66
2023/07/26 02:44:20;;;;;;;6.05;3.38;;;;;;;14.59;75.36;99115.28;31090693;28;109655;-66
2023/07/26 02:59:20;;;;;;;6.57;3.55;;;;;;;14.46;75.88;99134.16;31089246;28;97397;-66
2023/07/26 03:14:20;;;;;;;9.40;4.45;;;;;;;14.44;76.94;99152.34;31085392;28;96998;-66
2023/07/26 03:29:21;;;;;;;5.80;3.95;;;;;;;14.35;77.57;99171.38;31082427;28;112058;-66
2023/07/26 03:44:21;;;;;;;6.32;4.10;;;;;;;14.30;77.96;99192.63;31082489;28;96697;-66
2023/07/26 03:59:21;;;;;;;7.53;4.22;;;;;;;14.31;78.18;99212.19;31082678;28;97154;-64
2023/07/26 04:14:22;;;;;;;7.63;4.50;;;;;;;14.37;78.19;99232.78;31083035;28;97535;-67
2023/07/26 04:29:22;;;;;;;5.93;4.15;;;;;;;14.47;78.22;99253.72;31077524;28;97488;-66
2023/07/26 04:44:23;;;;;;;6.18;4.90;;;;;;;14.49;78.60;99265.84;31088241;28;97263;-70
2023/07/26 04:59:23;;;;;;;5.65;4.53;;;;;;;14.52;78.70;99281.47;31097019;28;96734;-66
2023/07/26 05:14:23;;;;;;;5.43;3.90;;;;;;;14.51;78.79;99287.06;31097300;28;103262;-66
2023/07/26 05:29:23;;;;;;;7.25;4.57;;;;;;;14.50;78.69;99302.34;31095526;28;112545;-66
2023/07/26 05:44:24;;;;;;;6.28;4.53;;;;;;;14.66;79.01;99316.25;31089196;28;97863;-70
2023/07/26 05:59:25;;;;;;;7.07;4.72;;;;;;;14.83;79.18;99340.66;31092848;28;97322;-62
2023/07/26 06:14:25;;;;;;;5.63;3.97;;;;;;;15.05;78.92;99373.28;31088647;28;96767;-63
2023/07/26 06:29:26;;;;;;;6.30;3.80;;;;;;;15.17;78.97;99376.91;31087654;28;97410;-63
2023/07/26 06:44:26;;;;;;;5.30;3.92;;;;;;;15.40;78.65;99392.38;31084464;28;97240;-65
2023/07/26 06:59:27;;;;;;;6.13;3.97;;;;;;;15.69;78.28;99403.44;31081661;28;97066;-63
2023/07/26 07:14:27;;;;;;;4.90;4.03;;;;;;;15.85;78.07;99420.00;31082892;28;97162;-63
2023/07/26 07:29:27;;;;;;;7.80;4.25;;;;;;;15.92;77.68;99438.75;31077366;28;111304;-64
2023/07/26 07:44:28;;;;;;;4.65;3.47;;;;;;;16.03;77.33;99438.81;31077914;28;111841;-62
2023/07/26 07:59:28;;;;;;;7.28;3.78;;;;;;;16.49;76.56;99425.84;31079366;28;96710;-63
2023/07/26 08:14:28;;;;;;;4.45;2.70;;;;;;;17.26;75.48;99445.81;31083160;28;112158;-64
2023/07/26 08:29:29;;;;;;;3.80;3.00;;;;;;;17.54;73.95;99480.13;31098950;28;97011;-67
2023/07/26 08:44:30;;;;;;;6.65;3.45;;;;;;;17.56;72.55;99493.38;31098467;28;99370;-63
2023/07/26 08:59:30;;;;;;;4.70;3.93;;;;;;;17.61;71.61;99512.34;31097920;28;97492;-65
2023/07/26 09:14:32;;;;;;;7.05;4.82;;;;;;;17.70;71.64;99516.34;31096266;28;96632;-64
2023/07/26 09:29:34;;;;;;;6.20;4.27;;;;;;;19.61;70.25;99520.06;31093093;28;97065;-65
2023/07/26 09:44:36;;;;;;;6.30;3.43;;;;;;;19.64;67.27;99521.47;31092418;28;97307;-63
2023/07/26 09:59:39;;;;;;;7.57;3.63;;;;;;;18.66;66.71;99522.41;31091253;28;97069;-64
2023/07/26 10:14:39;;;;;;;7.17;3.73;;;;;;;19.42;66.25;99514.09;31090431;28;97087;-63
2023/07/26 10:29:40;;;;;;;7.03;2.50;;;;;;;20.05;65.35;99520.22;31068237;28;97493;-70
2023/07/26 10:44:40;;;;;;;3.10;1.77;;;;;;;21.35;60.25;99528.72;31072613;28;97760;-65
2023/07/26 11:00:18;;;;;;;4.93;2.03;;;;;;;24.10;52.99;99540.28;31065694;28;97681;-63
2023/07/26 11:15:28;;;;;;;3.50;1.13;;;;;;;25.34;45.01;99530.41;31068245;28;98096;-72
2023/07/26 11:30:29;;;;;;;2.80;1.10;;;;;;;25.94;40.28;99521.13;31067998;28;97386;-67
2023/07/26 11:45:30;;;;;;;2.42;1.30;;;;;;;27.38;37.58;99518.50;31058882;28;97300;-65
2023/07/26 12:00:35;;;;;;;2.63;1.17;;;;;;;27.88;33.76;99517.88;31079698;28;97595;-66
2023/07/26 12:15:51;;;;;;;3.83;1.00;;;;;;;24.85;35.64;99506.75;31088974;28;97264;-66
2023/07/26 12:30:56;;;;;;;4.30;1.03;;;;;;;22.57;38.63;99513.50;31077885;28;97365;-65
2023/07/26 12:45:58;;;;;;;2.80;1.20;;;;;;;21.14;40.36;99533.13;31074899;28;99485;-66
2023/07/26 13:00:58;;;;;;;4.27;1.03;;;;;;;21.30;40.26;99543.03;31074199;28;98310;-66
2023/07/26 13:16:00;;;;;;;5.37;2.10;;;;;;;22.19;37.97;99548.03;31071497;28;98640;-66
2023/07/26 13:31:01;;;;;;;2.97;1.30;;;;;;;23.23;36.73;99544.63;31070200;28;97958;-65
2023/07/26 13:46:01;;;;;;;4.38;0.88;;;;;;;23.62;35.38;99543.28;31069666;28;107408;-65
2023/07/26 14:01:01;;;;;;;2.15;0.93;;;;;;;23.68;35.55;99530.53;31069261;28;112006;-68
2023/07/26 14:16:02;;;;;;;1.42;0.93;;;;;;;23.26;35.73;99527.78;31064464;28;97184;-68
2023/07/26 14:31:02;;;;;;;2.17;0.80;;;;;;;23.47;36.01;99534.06;31059687;28;105290;-68
2023/07/26 14:46:02;;;;;;;2.67;0.95;;;;;;;23.77;35.22;99529.69;31063843;28;98012;-68
2023/07/26 15:01:03;;;;;;;3.20;1.35;;;;;;;22.77;35.52;99525.50;31062748;28;97093;-68
2023/07/26 15:16:05;;;;;;;5.77;0.90;;;;;;;22.61;36.80;99533.59;31068288;28;98574;-67
2023/07/26 15:31:06;;;;;;;3.37;0.87;;;;;;;22.33;37.16;99536.72;31063309;28;97544;-66
2023/07/26 15:46:07;;;;;;;2.37;1.10;;;;;;;22.03;37.02;99527.34;31090412;28;97898;-67
2023/07/26 16:01:09;;;;;;;4.63;1.27;;;;;;;21.72;36.98;99525.25;31104847;28;112425;-66
2023/07/26 16:16:10;;;;;;;2.53;1.13;;;;;;;21.47;37.17;99520.41;31108810;28;97481;-66
2023/07/26 16:31:10;;;;;;;5.20;1.13;;;;;;;21.10;36.63;99522.00;31079167;28;97024;-67
2023/07/26 16:46:10;;;;;;;3.07;1.23;;;;;;;20.49;37.78;99532.13;31047080;27;96981;-67
2023/07/26 17:01:11;;;;;;;3.90;1.10;;;;;;;20.53;38.54;99527.84;31035254;28;110334;-68
2023/07/26 17:16:14;;;;;;;2.37;1.10;;;;;;;19.88;39.61;99531.03;31078985;28;98317;-65
2023/07/26 17:31:15;;;;;;;5.67;1.27;;;;;;;19.46;41.61;99547.66;31066997;28;98218;-67
2023/07/26 17:46:16;;;;;;;2.53;1.25;;;;;;;18.78;42.94;99569.06;31076382;28;102873;-67
2023/07/26 18:01:16;;;;;;;2.57;1.47;;;;;;;18.12;44.13;99585.47;31092858;28;97500;-66
2023/07/26 18:16:17;;;;;;;4.55;1.70;;;;;;;17.58;45.52;99605.19;31090600;28;108981;-65
2023/07/26 18:31:17;;;;;;;3.80;1.10;;;;;;;17.22;45.96;99631.19;31089216;28;97478;-67
2023/07/26 18:46:17;;;;;;;3.30;1.13;;;;;;;17.13;45.96;99635.25;31089627;28;96772;-64
2023/07/26 19:01:18;;;;;;;4.00;1.40;;;;;;;16.99;46.30;99666.03;31087182;28;96688;-64
2023/07/26 19:16:18;;;;;;;3.50;1.38;;;;;;;16.95;46.49;99676.44;31079482;28;106143;-67
2023/07/26 19:31:18;;;;;;;2.55;1.20;;;;;;;16.60;46.82;99690.44;31150035;27;97198;-66
2023/07/26 19:46:19;;;;;;;2.33;1.05;;;;;;;16.15;47.43;99707.56;31047007;28;97523;-66
2023/07/26 20:01:21;;;;;;;2.67;1.07;;;;;;;15.69;48.24;99722.09;31076219;28;96932;-67
2023/07/26 20:16:21;;;;;;;5.57;2.00;;;;;;;15.26;49.11;99726.25;31121058;28;96769;-66
2023/07/26 20:31:22;;;;;;;2.80;1.20;;;;;;;14.91;51.06;99736.47;31214501;28;97893;-67
2023/07/26 20:46:22;;;;;;;4.85;1.50;;;;;;;14.57;52.20;99739.19;31101668;27;97264;-66
2023/07/26 21:01:23;;;;;;;2.92;1.33;;;;;;;14.25;54.23;99748.84;31100027;28;113945;-67
2023/07/26 21:16:23;;;;;;;5.45;1.60;;;;;;;13.94;55.53;99758.28;31098066;28;97464;-67
2023/07/26 21:31:24;;;;;;;4.50;1.90;;;;;;;13.64;56.91;99763.97;31094932;28;97457;-68
2023/07/26 21:46:25;;;;;;;3.33;1.40;;;;;;;13.46;58.30;99788.59;31097156;28;97297;-65
2023/07/26 22:01:25;;;;;;;5.57;1.55;;;;;;;13.20;59.51;99801.63;31094707;28;97446;-66
2023/07/26 22:16:25;;;;;;;4.97;2.05;;;;;;;13.03;60.50;99798.41;31093611;28;97150;-66
2023/07/26 22:31:26;;;;;;;4.93;2.17;;;;;;;12.78;61.83;99819.44;31090785;28;97621;-66
2023/07/26 22:46:26;;;;;;;4.53;2.25;;;;;;;12.56;62.95;99815.97;31090421;28;102557;-67
2023/07/26 23:01:26;;;;;;;7.38;2.53;;;;;;;12.35;63.95;99819.47;31089230;28;97264;-67
2023/07/26 23:16:27;;;;;;;8.18;2.30;;;;;;;12.13;64.77;99823.97;31089120;28;97157;-66
2023/07/26 23:31:27;;;;;;;4.38;2.17;;;;;;;12.00;65.82;99827.31;31086084;28;110785;-67
2023/07/26 23:46:27;;;;;;;4.75;2.45;;;;;;;11.80;66.13;99835.88;31084753;28;102761;-68
